Time;durP1;ratioP1;P1;durP2;ratioP2;P2;SDS_P1;SDS_P2;PMS_P1;PMS_P2;Temp;Humidity;BMP_temperature;BMP_pressure;BME280_temperature;BME280_humidity;BME280_pressure;Samples;Min_cycle;Max_cycle;Signal;HPM_P1;HPM_P2
2021/11/24 00:01:29;;;;;;;0.00;0.00;;;;;17.30;100865.00;;;;5107394;28;20519;-81
2021/11/24 00:03:59;;;;;;;0.60;0.45;;;;;17.20;100859.00;;;;5089300;28;20132;-82
2021/11/24 00:06:30;;;;;;;0.45;0.10;;;;;17.20;100857.00;;;;5107071;28;20047;-81
2021/11/24 00:09:01;;;;;;;0.00;0.00;;;;;17.20;100837.00;;;;5106914;28;20067;-82
2021/11/24 00:11:30;;;;;;;0.00;0.00;;;;;17.20;100861.00;;;;5088712;28;20046;-81
2021/11/24 00:13:59;;;;;;;0.82;0.45;;;;;17.10;100862.00;;;;5088119;28;20052;-80
2021/11/24 00:16:29;;;;;;;0.00;0.00;;;;;17.00;100866.00;;;;5107176;28;20075;-80
2021/11/24 00:18:59;;;;;;;1.55;0.90;;;;;16.90;100876.00;;;;5089056;28;20046;-79
2021/11/24 00:21:28;;;;;;;0.63;0.47;;;;;17.20;100870.00;;;;5088669;28;20059;-81
2021/11/24 00:23:57;;;;;;;0.00;0.00;;;;;17.30;100897.00;;;;5106284;28;20040;-81
2021/11/24 00:26:27;;;;;;;0.00;0.00;;;;;17.10;100889.00;;;;5106206;28;20097;-80
2021/11/24 00:28:56;;;;;;;0.08;0.08;;;;;17.10;100876.00;;;;5088546;28;20050;-80
2021/11/24 00:31:28;;;;;;;0.00;0.00;;;;;17.10;100886.00;;;;5094437;28;20064;-80
2021/11/24 00:34:00;;;;;;;0.22;0.17;;;;;17.00;100908.00;;;;5090518;28;20044;-79
2021/11/24 00:36:29;;;;;;;0.13;0.10;;;;;16.90;100907.00;;;;5090415;28;20131;-80
2021/11/24 00:38:59;;;;;;;0.00;0.00;;;;;17.00;100888.00;;;;5090067;28;20063;-79
2021/11/24 00:41:28;;;;;;;0.00;0.00;;;;;16.80;100913.00;;;;5089732;28;20048;-81
2021/11/24 00:43:57;;;;;;;0.00;0.00;;;;;16.60;100904.00;;;;5071435;28;20101;-81
2021/11/24 00:46:27;;;;;;;0.00;0.00;;;;;16.50;100904.00;;;;5090042;28;20051;-81
2021/11/24 00:48:56;;;;;;;0.00;0.00;;;;;16.40;100924.00;;;;5072256;28;20044;-81
2021/11/24 00:51:25;;;;;;;0.00;0.00;;;;;16.30;100921.00;;;;5089621;28;20453;-79
2021/11/24 00:53:55;;;;;;;0.00;0.00;;;;;16.30;100908.00;;;;5089264;28;20044;-80
2021/11/24 00:56:24;;;;;;;0.00;0.00;;;;;16.40;100911.00;;;;5071868;28;20105;-81
2021/11/24 00:58:54;;;;;;;0.00;0.00;;;;;16.20;100916.00;;;;5094552;28;20388;-80
2021/11/24 01:01:23;;;;;;;0.03;0.03;;;;;16.20;100937.00;;;;5098779;28;20479;-81
2021/11/24 01:03:53;;;;;;;11.18;0.38;;;;;16.20;100933.00;;;;5097862;28;20448;-80
2021/11/24 01:06:22;;;;;;;0.00;0.00;;;;;16.40;100913.00;;;;5080371;28;20074;-81
2021/11/24 01:08:52;;;;;;;0.00;0.00;;;;;16.20;100932.00;;;;5098600;28;20039;-82
2021/11/24 01:11:21;;;;;;;0.00;0.00;;;;;16.00;100918.00;;;;5071817;28;20047;-80
2021/11/24 01:13:50;;;;;;;0.00;0.00;;;;;16.00;100911.00;;;;5090032;28;20094;-80
2021/11/24 01:16:20;;;;;;;0.38;0.17;;;;;16.00;100889.00;;;;5089395;28;20494;-79
2021/11/24 01:18:49;;;;;;;0.32;0.10;;;;;15.90;100897.00;;;;5089867;28;20069;-80
2021/11/24 01:21:19;;;;;;;0.00;0.00;;;;;15.90;100906.00;;;;5071800;28;20403;-80
2021/11/24 01:23:49;;;;;;;0.00;0.00;;;;;15.90;100907.00;;;;5071422;28;20052;-79
2021/11/24 01:26:19;;;;;;;0.00;0.00;;;;;15.90;100903.00;;;;5093917;28;20112;-78
2021/11/24 01:28:48;;;;;;;0.00;0.00;;;;;15.80;100907.00;;;;5094454;28;20052;-79
2021/11/24 01:31:19;;;;;;;0.85;0.85;;;;;15.80;100894.00;;;;5088628;28;20036;-79
2021/11/24 01:33:48;;;;;;;0.38;0.25;;;;;15.90;100900.00;;;;5070431;28;20075;-80
2021/11/24 01:36:17;;;;;;;0.00;0.00;;;;;15.90;100905.00;;;;5088871;28;20044;-79
2021/11/24 01:38:47;;;;;;;0.05;0.05;;;;;15.90;100887.00;;;;5087520;28;20089;-79
2021/11/24 01:41:17;;;;;;;0.00;0.00;;;;;15.80;100910.00;;;;5088513;28;20048;-79
2021/11/24 01:43:46;;;;;;;0.00;0.00;;;;;15.90;100896.00;;;;5088468;28;20048;-80
2021/11/24 01:46:15;;;;;;;0.00;0.00;;;;;16.00;100905.00;;;;5088356;28;20044;-79
2021/11/24 01:48:45;;;;;;;0.52;0.22;;;;;16.00;100899.00;;;;5088491;28;20048;-80
2021/11/24 01:51:14;;;;;;;0.00;0.00;;;;;16.30;100896.00;;;;5089002;28;20074;-80
2021/11/24 01:53:44;;;;;;;0.00;0.00;;;;;16.20;100897.00;;;;5088526;28;20109;-80
2021/11/24 01:56:14;;;;;;;0.00;0.00;;;;;16.10;100909.00;;;;5088741;28;20543;-79
2021/11/24 01:58:45;;;;;;;0.00;0.00;;;;;15.90;100889.00;;;;5070733;28;20036;-79
2021/11/24 02:01:15;;;;;;;0.10;0.10;;;;;15.70;100900.00;;;;5088851;28;20045;-79
2021/11/24 02:03:44;;;;;;;0.10;0.00;;;;;15.90;100911.00;;;;5088699;28;20048;-79
2021/11/24 02:06:14;;;;;;;0.00;0.00;;;;;15.90;100911.00;;;;5070678;28;20555;-79
2021/11/24 02:08:43;;;;;;;0.30;0.22;;;;;15.80;100907.00;;;;5088265;28;20070;-79
2021/11/24 02:11:13;;;;;;;5.07;4.68;;;;;15.60;100890.00;;;;5087877;28;20050;-79
2021/11/24 02:13:42;;;;;;;0.00;0.00;;;;;15.40;100884.00;;;;5069755;28;20052;-79
2021/11/24 02:16:12;;;;;;;0.25;0.25;;;;;15.50;100891.00;;;;5088045;28;20127;-78
2021/11/24 02:18:41;;;;;;;0.00;0.00;;;;;15.60;100888.00;;;;5070359;28;20139;-77
2021/11/24 02:21:11;;;;;;;0.00;0.00;;;;;15.50;100877.00;;;;5088436;28;20048;-79
2021/11/24 02:23:40;;;;;;;0.00;0.00;;;;;15.50;100883.00;;;;5070539;28;20071;-79
2021/11/24 02:26:09;;;;;;;0.00;0.00;;;;;15.30;100878.00;;;;5087052;28;20048;-78
2021/11/24 02:28:40;;;;;;;0.00;0.00;;;;;15.20;100894.00;;;;5086652;28;20499;-78
2021/11/24 02:31:19;;;;;;;0.00;0.00;;;;;15.00;100895.00;;;;5088309;28;20090;-79
2021/11/24 02:33:51;;;;;;;0.00;0.00;;;;;14.90;100875.00;;;;5087873;28;20801;-79
2021/11/24 02:36:21;;;;;;;0.00;0.00;;;;;14.70;100885.00;;;;5087691;28;20048;-78
2021/11/24 02:38:51;;;;;;;0.00;0.00;;;;;14.70;100875.00;;;;5088730;28;20052;-79
2021/11/24 02:41:20;;;;;;;0.00;0.00;;;;;15.00;100890.00;;;;5087546;28;20085;-78
2021/11/24 02:43:49;;;;;;;0.00;0.00;;;;;15.10;100891.00;;;;5087552;28;20131;-78
2021/11/24 02:46:19;;;;;;;0.00;0.00;;;;;15.00;100878.00;;;;5088237;28;20105;-79
2021/11/24 02:48:48;;;;;;;0.00;0.00;;;;;15.00;100878.00;;;;5087516;28;20036;-78
2021/11/24 02:51:17;;;;;;;0.05;0.05;;;;;14.80;100883.00;;;;5087811;28;20498;-80
2021/11/24 02:53:47;;;;;;;0.00;0.00;;;;;14.60;100882.00;;;;5087830;28;20052;-78
2021/11/24 02:56:16;;;;;;;0.00;0.00;;;;;14.50;100889.00;;;;5087223;28;20040;-78
2021/11/24 02:58:45;;;;;;;0.00;0.00;;;;;14.40;100881.00;;;;5087931;28;20457;-79
2021/11/24 03:01:15;;;;;;;0.00;0.00;;;;;14.30;100865.00;;;;5087726;28;20051;-78
2021/11/24 03:03:44;;;;;;;0.00;0.00;;;;;14.10;100876.00;;;;5087170;28;20499;-79
2021/11/24 03:06:14;;;;;;;0.00;0.00;;;;;14.00;100883.00;;;;5087220;28;20040;-78
2021/11/24 03:08:44;;;;;;;3.83;0.55;;;;;14.00;100883.00;;;;5069224;28;20432;-79
2021/11/24 03:11:13;;;;;;;0.00;0.00;;;;;13.80;100878.00;;;;5087357;28;20583;-78
2021/11/24 03:13:42;;;;;;;0.00;0.00;;;;;13.70;100875.00;;;;5087762;28;20059;-79
2021/11/24 03:16:12;;;;;;;0.00;0.00;;;;;13.70;100891.00;;;;5087905;28;20154;-78
2021/11/24 03:18:41;;;;;;;0.00;0.00;;;;;13.70;100880.00;;;;5069081;28;20048;-79
2021/11/24 03:21:10;;;;;;;0.22;0.17;;;;;13.70;100885.00;;;;5087156;28;20093;-78
2021/11/24 03:23:40;;;;;;;0.00;0.00;;;;;13.70;100874.00;;;;5086814;28;20048;-79
2021/11/24 03:26:09;;;;;;;0.00;0.00;;;;;13.60;100865.00;;;;5068808;28;20548;-78
2021/11/24 03:28:39;;;;;;;0.00;0.00;;;;;13.60;100859.00;;;;5087236;28;20048;-78
2021/11/24 03:31:08;;;;;;;0.52;0.52;;;;;13.70;100853.00;;;;5087241;28;20051;-78
2021/11/24 03:33:38;;;;;;;0.00;0.00;;;;;13.70;100852.00;;;;5086808;28;20055;-79
2021/11/24 03:36:07;;;;;;;0.00;0.00;;;;;13.80;100857.00;;;;5087247;28;20518;-81
2021/11/24 03:38:37;;;;;;;0.10;0.10;;;;;14.10;100849.00;;;;5086978;28;20040;-78
2021/11/24 03:41:06;;;;;;;0.00;0.00;;;;;14.10;100838.00;;;;5068603;28;20052;-78
2021/11/24 03:43:35;;;;;;;0.00;0.00;;;;;14.10;100832.00;;;;5086815;28;20525;-79
2021/11/24 03:46:05;;;;;;;0.70;0.40;;;;;14.20;100815.00;;;;5087238;28;21175;-79
2021/11/24 03:48:35;;;;;;;0.00;0.00;;;;;14.20;100827.00;;;;5068462;28;20703;-78
2021/11/24 03:51:05;;;;;;;0.00;0.00;;;;;14.20;100824.00;;;;5086555;28;20119;-79
2021/11/24 03:53:40;;;;;;;0.10;0.10;;;;;14.10;100835.00;;;;5086942;28;20043;-78
2021/11/24 03:56:11;;;;;;;0.00;0.00;;;;;14.10;100819.00;;;;5086694;28;20070;-78
2021/11/24 03:58:41;;;;;;;0.00;0.00;;;;;14.00;100814.00;;;;5087074;28;20047;-78
2021/11/24 04:01:12;;;;;;;0.00;0.00;;;;;13.90;100808.00;;;;5068730;28;20048;-78
2021/11/24 04:03:42;;;;;;;0.00;0.00;;;;;13.70;100807.00;;;;5086187;28;20044;-79
2021/11/24 04:06:11;;;;;;;0.52;0.52;;;;;13.60;100821.00;;;;5088650;28;20510;-78
2021/11/24 04:08:41;;;;;;;0.15;0.15;;;;;13.50;100825.00;;;;5091332;28;20071;-78
2021/11/24 04:11:10;;;;;;;0.00;0.00;;;;;13.40;100816.00;;;;5096569;28;20040;-78
2021/11/24 04:13:40;;;;;;;0.45;0.43;;;;;13.50;100808.00;;;;5074982;28;20490;-78
2021/11/24 04:16:09;;;;;;;0.00;0.00;;;;;13.40;100812.00;;;;5090952;28;20055;-79
2021/11/24 04:18:39;;;;;;;0.00;0.00;;;;;13.30;100782.00;;;;5090590;28;20044;-78
2021/11/24 04:21:08;;;;;;;0.00;0.00;;;;;13.30;100801.00;;;;5090727;28;20725;-78
2021/11/24 04:23:38;;;;;;;0.00;0.00;;;;;13.20;100784.00;;;;5072418;28;20043;-77
2021/11/24 04:26:08;;;;;;;0.00;0.00;;;;;13.20;100777.00;;;;5090479;28;20507;-79
2021/11/24 04:28:38;;;;;;;0.00;0.00;;;;;13.10;100783.00;;;;5089910;28;20048;-79
2021/11/24 04:31:09;;;;;;;0.00;0.00;;;;;13.10;100785.00;;;;5091108;28;20444;-79
2021/11/24 04:33:39;;;;;;;0.00;0.00;;;;;13.00;100797.00;;;;5090539;28;20494;-79
2021/11/24 04:36:09;;;;;;;0.00;0.00;;;;;12.90;100782.00;;;;5090159;28;20036;-78
2021/11/24 04:38:38;;;;;;;0.00;0.00;;;;;13.00;100792.00;;;;5090129;28;20059;-79
2021/11/24 04:41:07;;;;;;;0.00;0.00;;;;;12.90;100790.00;;;;5090420;28;20036;-79
2021/11/24 04:43:42;;;;;;;0.00;0.00;;;;;12.90;100784.00;;;;5089911;28;20044;-79
2021/11/24 04:46:16;;;;;;;0.00;0.00;;;;;12.90;100787.00;;;;5090301;28;20041;-78
2021/11/24 04:48:45;;;;;;;0.00;0.00;;;;;12.90;100783.00;;;;5071761;28;20518;-78
2021/11/24 04:51:15;;;;;;;0.00;0.00;;;;;12.80;100788.00;;;;5089696;28;20048;-79
2021/11/24 04:53:44;;;;;;;0.00;0.00;;;;;12.80;100789.00;;;;5090215;28;20569;-81
2021/11/24 04:56:14;;;;;;;0.00;0.00;;;;;12.80;100791.00;;;;5090674;28;20040;-79
2021/11/24 04:58:55;;;;;;;0.00;0.00;;;;;12.70;100753.00;;;;5090620;28;20040;-78
2021/11/24 05:01:26;;;;;;;0.00;0.00;;;;;12.60;100771.00;;;;5089594;28;20403;-78
2021/11/24 05:03:56;;;;;;;0.00;0.00;;;;;12.70;100777.00;;;;5089864;28;20131;-79
2021/11/24 05:06:25;;;;;;;0.00;0.00;;;;;12.60;100766.00;;;;5089716;28;20335;-79
2021/11/24 05:08:55;;;;;;;0.00;0.00;;;;;12.60;100779.00;;;;5089453;28;20052;-78
2021/11/24 05:11:25;;;;;;;0.00;0.00;;;;;12.50;100768.00;;;;5087765;28;20063;-79
2021/11/24 05:14:05;;;;;;;0.00;0.00;;;;;12.50;100790.00;;;;5089404;28;20039;-79
2021/11/24 05:16:37;;;;;;;0.00;0.00;;;;;12.50;100758.00;;;;5089328;28;20124;-78
2021/11/24 05:19:10;;;;;;;0.00;0.00;;;;;12.50;100776.00;;;;5070983;28;20123;-78
2021/11/24 05:21:40;;;;;;;0.10;0.10;;;;;12.50;100765.00;;;;5089686;28;20464;-79
2021/11/24 05:24:10;;;;;;;0.03;0.03;;;;;12.50;100770.00;;;;5090438;28;20052;-78
2021/11/24 05:26:39;;;;;;;0.00;0.00;;;;;12.50;100785.00;;;;5071203;28;20093;-77
2021/11/24 05:29:09;;;;;;;0.00;0.00;;;;;12.40;100772.00;;;;5088640;28;20044;-78
2021/11/24 05:31:39;;;;;;;0.32;0.22;;;;;12.40;100785.00;;;;5089143;28;20429;-79
2021/11/24 05:34:09;;;;;;;0.00;0.00;;;;;12.40;100781.00;;;;5089125;28;20841;-78
2021/11/24 05:36:39;;;;;;;0.00;0.00;;;;;12.40;100766.00;;;;5089239;28;20131;-80
2021/11/24 05:39:10;;;;;;;0.00;0.00;;;;;12.40;100783.00;;;;5089298;28;20040;-78
2021/11/24 05:41:41;;;;;;;0.00;0.00;;;;;12.30;100788.00;;;;5087446;28;20056;-79
2021/11/24 05:44:26;;;;;;;0.00;0.00;;;;;12.30;100786.00;;;;5070891;28;20117;-78
2021/11/24 05:47:00;;;;;;;0.00;0.00;;;;;12.20;100787.00;;;;5070723;28;20389;-79
2021/11/24 05:49:30;;;;;;;0.00;0.00;;;;;12.20;100784.00;;;;5089408;28;20044;-78
2021/11/24 05:51:59;;;;;;;0.08;0.08;;;;;12.20;100781.00;;;;5088875;28;20085;-79
2021/11/24 05:54:29;;;;;;;0.55;0.38;;;;;12.20;100785.00;;;;5088809;28;20043;-79
2021/11/24 05:56:58;;;;;;;0.10;0.10;;;;;12.30;100780.00;;;;5089031;28;20102;-78
2021/11/24 05:59:29;;;;;;;0.20;0.20;;;;;12.30;100764.00;;;;5087142;28;20048;-79
2021/11/24 06:01:59;;;;;;;0.00;0.00;;;;;12.30;100762.00;;;;5088845;28;20474;-79
2021/11/24 06:04:28;;;;;;;0.10;0.03;;;;;12.30;100738.00;;;;5088061;28;20548;-78
2021/11/24 06:06:58;;;;;;;0.00;0.00;;;;;12.20;100764.00;;;;5088267;28;20069;-78
2021/11/24 06:09:28;;;;;;;0.00;0.00;;;;;12.10;100766.00;;;;5088225;28;20093;-78
2021/11/24 06:11:57;;;;;;;0.00;0.00;;;;;12.10;100768.00;;;;5087950;28;20138;-80
2021/11/24 06:14:27;;;;;;;4.63;0.10;;;;;12.10;100756.00;;;;5088488;28;20400;-79
2021/11/24 06:16:57;;;;;;;0.00;0.00;;;;;12.10;100751.00;;;;5088862;28;20040;-79
2021/11/24 06:19:27;;;;;;;0.75;0.35;;;;;12.10;100755.00;;;;5088547;28;20068;-79
2021/11/24 06:21:56;;;;;;;2.08;0.63;;;;;12.10;100764.00;;;;5088556;28;20506;-78
2021/11/24 06:24:26;;;;;;;0.00;0.00;;;;;12.10;100758.00;;;;5088218;28;20126;-78
2021/11/24 06:26:55;;;;;;;0.00;0.00;;;;;11.90;100759.00;;;;5088154;28;20051;-77
2021/11/24 06:29:25;;;;;;;0.08;0.08;;;;;12.00;100759.00;;;;5069628;28;20502;-78
2021/11/24 06:31:54;;;;;;;0.00;0.00;;;;;12.10;100730.00;;;;5088056;28;20051;-78
2021/11/24 06:34:24;;;;;;;0.55;0.55;;;;;12.10;100728.00;;;;5087729;28;20093;-78
2021/11/24 06:36:57;;;;;;;1.65;1.00;;;;;12.10;100726.00;;;;5087829;28;20517;-78
2021/11/24 06:39:28;;;;;;;3.47;0.35;;;;;12.10;100735.00;;;;5087989;28;20036;-78
2021/11/24 06:41:59;;;;;;;2.08;1.40;;;;;12.00;100736.00;;;;5069985;28;20113;-79
2021/11/24 06:44:28;;;;;;;0.00;0.00;;;;;12.00;100725.00;;;;5087115;28;20040;-78
2021/11/24 06:46:57;;;;;;;0.08;0.03;;;;;11.90;100723.00;;;;5088023;28;20048;-79
2021/11/24 06:49:29;;;;;;;2.47;0.95;;;;;12.00;100721.00;;;;5085958;28;20055;-78
2021/11/24 06:51:59;;;;;;;2.38;0.85;;;;;12.10;100729.00;;;;5087944;28;20044;-79
2021/11/24 06:54:28;;;;;;;0.17;0.15;;;;;12.20;100714.00;;;;5087902;28;20044;-79
2021/11/24 06:56:58;;;;;;;0.00;0.00;;;;;12.10;100715.00;;;;5087630;28;20051;-78
2021/11/24 06:59:27;;;;;;;0.00;0.00;;;;;12.00;100718.00;;;;5087453;28;20047;-79
2021/11/24 07:01:56;;;;;;;3.13;1.65;;;;;12.00;100709.00;;;;5088933;28;20048;-78
2021/11/24 07:04:27;;;;;;;0.00;0.00;;;;;12.10;100712.00;;;;5074893;28;20131;-78
2021/11/24 07:06:56;;;;;;;0.52;0.52;;;;;12.00;100713.00;;;;5089663;28;20047;-79
2021/11/24 07:09:26;;;;;;;2.05;0.65;;;;;12.00;100710.00;;;;5088312;28;20674;-79
2021/11/24 07:11:56;;;;;;;0.40;0.40;;;;;12.00;100713.00;;;;5087586;28;20044;-78
2021/11/24 07:14:25;;;;;;;0.17;0.10;;;;;11.90;100701.00;;;;5087321;28;20131;-79
2021/11/24 07:16:55;;;;;;;0.00;0.00;;;;;11.90;100708.00;;;;5087009;28;20081;-79
2021/11/24 07:19:24;;;;;;;0.00;0.00;;;;;11.90;100714.00;;;;5068794;28;20102;-80
2021/11/24 07:21:53;;;;;;;0.08;0.08;;;;;11.80;100725.00;;;;5088041;28;20055;-78
2021/11/24 07:24:23;;;;;;;0.10;0.10;;;;;11.80;100704.00;;;;5086829;28;20052;-79
2021/11/24 07:26:53;;;;;;;1.30;0.82;;;;;11.80;100715.00;;;;5086924;28;20044;-79
2021/11/24 07:29:22;;;;;;;7.68;0.98;;;;;11.80;100722.00;;;;5087318;28;20040;-78
2021/11/24 07:31:51;;;;;;;0.00;0.00;;;;;11.70;100717.00;;;;5087291;28;20047;-78
2021/11/24 07:34:21;;;;;;;0.00;0.00;;;;;11.70;100704.00;;;;5087826;28;20067;-79
2021/11/24 07:36:50;;;;;;;2.35;1.00;;;;;11.70;100713.00;;;;5085799;28;20048;-79
2021/11/24 07:39:19;;;;;;;0.75;0.20;;;;;11.70;100722.00;;;;5086980;28;20070;-80
2021/11/24 07:41:49;;;;;;;2.85;0.52;;;;;11.80;100694.00;;;;5086763;28;20421;-80
2021/11/24 07:44:23;;;;;;;0.30;0.22;;;;;11.80;100722.00;;;;5067912;28;20064;-80
2021/11/24 07:46:53;;;;;;;1.17;0.65;;;;;11.70;100721.00;;;;5086959;28;20054;-80
2021/11/24 07:49:22;;;;;;;4.93;0.50;;;;;11.70;100716.00;;;;5068874;28;20048;-79
2021/11/24 07:51:52;;;;;;;0.75;0.75;;;;;11.70;100725.00;;;;5086974;28;20047;-79
2021/11/24 07:54:21;;;;;;;0.00;0.00;;;;;11.60;100722.00;;;;5086322;28;20048;-79
2021/11/24 07:56:51;;;;;;;0.03;0.03;;;;;11.70;100710.00;;;;5087012;28;20040;-80
2021/11/24 07:59:20;;;;;;;11.05;1.23;;;;;11.70;100730.00;;;;5086927;28;20040;-79
2021/11/24 08:01:49;;;;;;;3.40;0.43;;;;;11.70;100710.00;;;;5068805;28;20430;-79
2021/11/24 08:04:19;;;;;;;4.25;0.30;;;;;11.60;100740.00;;;;5087213;28;20044;-78
2021/11/24 08:06:48;;;;;;;0.00;0.00;;;;;11.60;100722.00;;;;5086925;28;20486;-79
2021/11/24 08:09:18;;;;;;;0.00;0.00;;;;;11.60;100730.00;;;;5087412;28;20052;-79
2021/11/24 08:11:47;;;;;;;0.00;0.00;;;;;11.60;100759.00;;;;5087576;28;20051;-79
2021/11/24 08:14:16;;;;;;;0.00;0.00;;;;;11.50;100750.00;;;;5087391;28;20052;-79
2021/11/24 08:16:46;;;;;;;0.00;0.00;;;;;11.50;100749.00;;;;5068714;28;20051;-79
2021/11/24 08:19:15;;;;;;;0.00;0.00;;;;;11.30;100757.00;;;;5086220;28;20059;-79
2021/11/24 08:21:44;;;;;;;0.10;0.10;;;;;11.40;100738.00;;;;5051926;28;20044;-79
2021/11/24 08:24:14;;;;;;;0.00;0.00;;;;;11.50;100743.00;;;;5085953;28;20044;-78
2021/11/24 08:26:44;;;;;;;0.00;0.00;;;;;11.40;100739.00;;;;5086101;28;20056;-79
2021/11/24 08:29:13;;;;;;;0.00;0.00;;;;;11.40;100743.00;;;;5086889;28;20047;-79
2021/11/24 08:31:42;;;;;;;0.50;0.50;;;;;11.50;100762.00;;;;5086387;28;20048;-80
2021/11/24 08:34:12;;;;;;;0.00;0.00;;;;;11.50;100768.00;;;;5067790;28;20371;-79
2021/11/24 08:36:42;;;;;;;0.00;0.00;;;;;11.40;100765.00;;;;5086415;28;20044;-81
2021/11/24 08:39:11;;;;;;;0.00;0.00;;;;;11.40;100769.00;;;;5085025;28;20059;-80
2021/11/24 08:41:45;;;;;;;0.00;0.00;;;;;11.60;100767.00;;;;5068039;28;20094;-79
2021/11/24 08:44:14;;;;;;;0.00;0.00;;;;;11.50;100791.00;;;;5086320;28;20040;-78
2021/11/24 08:46:44;;;;;;;0.00;0.00;;;;;11.50;100769.00;;;;5086224;28;20048;-79
2021/11/24 08:49:13;;;;;;;0.15;0.15;;;;;11.60;100774.00;;;;5067795;28;20136;-79
2021/11/24 08:51:43;;;;;;;0.10;0.05;;;;;11.70;100782.00;;;;5086839;28;20036;-79
2021/11/24 08:54:13;;;;;;;0.00;0.00;;;;;11.70;100768.00;;;;5088964;28;20048;-79
2021/11/24 08:56:43;;;;;;;0.00;0.00;;;;;11.70;100784.00;;;;5090398;28;20048;-80
2021/11/24 08:59:12;;;;;;;0.28;0.25;;;;;11.70;100770.00;;;;5090372;28;20048;-78
2021/11/24 09:01:42;;;;;;;0.00;0.00;;;;;11.90;100787.00;;;;5089039;28;20627;-80
2021/11/24 09:04:11;;;;;;;0.52;0.30;;;;;12.00;100775.00;;;;5089932;28;20036;-79
2021/11/24 09:06:41;;;;;;;1.02;0.95;;;;;12.10;100788.00;;;;5089984;28;20101;-80
2021/11/24 09:09:10;;;;;;;0.00;0.00;;;;;12.20;100778.00;;;;5089517;28;20126;-79
2021/11/24 09:11:39;;;;;;;0.00;0.00;;;;;12.30;100775.00;;;;5089855;28;20081;-78
2021/11/24 09:14:09;;;;;;;0.00;0.00;;;;;12.30;100776.00;;;;5089529;28;20036;-80
2021/11/24 09:16:58;;;;;;;0.15;0.15;;;;;12.50;100791.00;;;;5089836;28;20044;-80
2021/11/24 09:19:28;;;;;;;0.47;0.47;;;;;12.70;100791.00;;;;5090161;28;20040;-79
2021/11/24 09:21:57;;;;;;;0.00;0.00;;;;;12.90;100778.00;;;;5089746;28;20044;-78
2021/11/24 09:24:27;;;;;;;0.00;0.00;;;;;13.30;100779.00;;;;5089135;28;20051;-80
2021/11/24 09:29:27;;;;;;;0.00;0.00;;;;;13.70;100764.00;;;;5090188;28;20093;-79
2021/11/24 09:31:56;;;;;;;0.00;0.00;;;;;14.00;100774.00;;;;5071595;28;20067;-79
2021/11/24 09:34:26;;;;;;;0.38;0.35;;;;;14.20;100798.00;;;;5070696;28;20298;-80
2021/11/24 09:36:55;;;;;;;0.00;0.00;;;;;14.10;100781.00;;;;5088899;28;20051;-81
2021/11/24 09:39:24;;;;;;;0.00;0.00;;;;;14.60;100786.00;;;;5089167;28;20047;-79
2021/11/24 09:41:57;;;;;;;0.00;0.00;;;;;15.20;100775.00;;;;5087773;28;20106;-79
2021/11/24 09:44:28;;;;;;;0.03;0.03;;;;;15.70;100743.00;;;;5089176;28;20044;-80
2021/11/24 09:47:01;;;;;;;0.00;0.00;;;;;18.10;100715.00;;;;5089530;28;20081;-79
2021/11/24 09:49:31;;;;;;;0.00;0.00;;;;;17.00;100744.00;;;;5089704;28;20044;-78
2021/11/24 09:52:20;;;;;;;0.00;0.00;;;;;16.70;100786.00;;;;5089462;28;20511;-81
2021/11/24 09:54:50;;;;;;;0.52;0.13;;;;;16.20;100809.00;;;;5089135;28;20044;-80
2021/11/24 09:57:26;;;;;;;0.00;0.00;;;;;16.20;100802.00;;;;5072135;28;20461;-80
2021/11/24 09:59:55;;;;;;;0.08;0.08;;;;;16.30;100796.00;;;;5092964;28;20036;-79
2021/11/24 10:02:25;;;;;;;0.03;0.03;;;;;16.30;100789.00;;;;5092010;28;20148;-79
2021/11/24 10:04:54;;;;;;;0.00;0.00;;;;;16.50;100797.00;;;;5088215;28;20043;-79
2021/11/24 10:07:24;;;;;;;0.20;0.20;;;;;16.70;100796.00;;;;5087118;28;20083;-80
2021/11/24 10:09:53;;;;;;;0.00;0.00;;;;;17.00;100782.00;;;;5088825;28;20063;-80
2021/11/24 10:12:23;;;;;;;0.52;0.30;;;;;18.20;100781.00;;;;5069736;28;20043;-81
2021/11/24 10:14:52;;;;;;;1.33;0.32;;;;;20.30;100621.00;;;;5089185;28;20040;-80
2021/11/24 10:17:25;;;;;;;0.17;0.17;;;;;25.40;100563.00;;;;5088474;28;20055;-81
2021/11/24 10:20:07;;;;;;;0.30;0.30;;;;;26.70;100552.00;;;;5087345;28;20506;-79
2021/11/24 10:22:39;;;;;;;0.00;0.00;;;;;27.30;100602.00;;;;5089089;28;20486;-83
2021/11/24 10:25:11;;;;;;;0.32;0.32;;;;;22.40;100762.00;;;;5070544;28;20044;-80
2021/11/24 10:27:48;;;;;;;0.10;0.10;;;;;21.70;100732.00;;;;5088563;28;20127;-80
2021/11/24 10:30:36;;;;;;;0.25;0.25;;;;;20.70;100742.00;;;;5070515;28;20127;-80
2021/11/24 10:33:19;;;;;;;0.32;0.32;;;;;19.60;100765.00;;;;5088361;28;20089;-80
2021/11/24 10:36:12;;;;;;;0.00;0.00;;;;;19.20;100784.00;;;;5087822;28;20154;-80
2021/11/24 10:38:51;;;;;;;17.85;2.60;;;;;19.50;100767.00;;;;5087422;28;20044;-81
2021/11/24 10:41:36;;;;;;;0.00;0.00;;;;;19.80;100780.00;;;;5087658;28;20040;-80
2021/11/24 10:44:28;;;;;;;0.38;0.17;;;;;19.60;100784.00;;;;5054045;28;20153;-79
2021/11/24 10:47:01;;;;;;;2.95;0.35;;;;;20.80;100755.00;;;;5087312;28;20059;-83
2021/11/24 10:49:34;;;;;;;5.30;1.20;;;;;20.30;100774.00;;;;5069117;28;20134;-81
2021/11/24 10:52:31;;;;;;;0.65;0.17;;;;;21.70;100675.00;;;;5087358;28;20414;-81
2021/11/24 10:55:06;;;;;;;3.47;1.38;;;;;27.50;100561.00;;;;5081562;28;20067;-82
2021/11/24 10:57:38;;;;;;;0.05;0.05;;;;;29.50;100573.00;;;;5088050;28;20117;-80
2021/11/24 11:00:10;;;;;;;0.00;0.00;;;;;30.30;100580.00;;;;5088159;28;20122;-82
2021/11/24 11:02:42;;;;;;;0.00;0.00;;;;;30.20;100577.00;;;;5087767;28;20051;-81
2021/11/24 11:05:18;;;;;;;0.10;0.10;;;;;30.60;100598.00;;;;5087320;28;20071;-81
2021/11/24 11:07:52;;;;;;;1.77;1.00;;;;;30.20;100595.00;;;;5070039;28;20048;-81
2021/11/24 11:10:42;;;;;;;0.75;0.30;;;;;30.30;100570.00;;;;5087129;28;20062;-83
2021/11/24 11:13:17;;;;;;;0.77;0.32;;;;;30.50;100559.00;;;;5069797;28;20989;-81
2021/11/24 11:15:54;;;;;;;0.08;0.08;;;;;30.40;100552.00;;;;5086961;28;20036;-80
2021/11/24 11:18:31;;;;;;;6.25;0.22;;;;;30.10;100547.00;;;;5088258;28;20036;-81
2021/11/24 11:21:07;;;;;;;0.00;0.00;;;;;29.70;100556.00;;;;5085523;28;20048;-81
2021/11/24 11:23:48;;;;;;;1.15;1.15;;;;;29.20;100545.00;;;;5087635;28;20465;-84
2021/11/24 11:26:26;;;;;;;0.00;0.00;;;;;28.80;100546.00;;;;5088006;28;20052;-81
2021/11/24 11:28:56;;;;;;;0.32;0.08;;;;;28.50;100555.00;;;;5089093;28;20064;-81
2021/11/24 11:31:29;;;;;;;0.30;0.20;;;;;27.40;100546.00;;;;5068760;28;20051;-82
2021/11/24 11:34:02;;;;;;;6.32;0.45;;;;;27.20;100549.00;;;;5087620;28;20055;-82
2021/11/24 11:36:34;;;;;;;0.10;0.00;;;;;26.60;100566.00;;;;5085328;28;20656;-82
2021/11/24 11:39:04;;;;;;;1.30;0.70;;;;;25.80;100592.00;;;;5087115;28;20070;-82
2021/11/24 11:41:36;;;;;;;2.85;0.25;;;;;25.70;100615.00;;;;5087830;28;20130;-80
2021/11/24 11:44:26;;;;;;;0.28;0.28;;;;;25.90;100700.00;;;;5086781;28;20048;-81
2021/11/24 11:47:31;;;;;;;0.65;0.20;;;;;25.80;100726.00;;;;5087422;28;20496;-82
2021/11/24 11:50:13;;;;;;;0.00;0.00;;;;;25.30;100727.00;;;;5086538;28;20044;-81
2021/11/24 11:53:29;;;;;;;5.30;1.05;;;;;24.50;100742.00;;;;5087163;28;20043;-82
2021/11/24 11:56:08;;;;;;;0.10;0.10;;;;;24.90;100747.00;;;;5067205;28;20068;-82
2021/11/24 11:58:57;;;;;;;0.00;0.00;;;;;25.30;100725.00;;;;5070514;28;20089;-83
2021/11/24 12:01:41;;;;;;;0.00;0.00;;;;;25.50;100726.00;;;;5087647;28;20048;-81
2021/11/24 12:04:21;;;;;;;0.00;0.00;;;;;25.70;100728.00;;;;5087871;28;20154;-81
2021/11/24 12:06:54;;;;;;;0.00;0.00;;;;;26.30;100744.00;;;;5086876;28;20093;-85
2021/11/24 12:09:25;;;;;;;0.00;0.00;;;;;26.40;100728.00;;;;5069964;28;20051;-81
2021/11/24 12:14:40;;;;;;;0.00;0.00;;;;;26.10;100704.00;;;;5088045;28;20032;-81
2021/11/24 12:20:01;;;;;;;0.00;0.00;;;;;26.90;100704.00;;;;5086897;28;20548;-83
2021/11/24 12:22:46;;;;;;;0.00;0.00;;;;;26.80;100705.00;;;;5069365;28;20116;-81
2021/11/24 15:15:44;;;;;;;1.02;0.20;;;;;32.10;100523.00;;;;5080738;28;20057;-80
2021/11/24 15:18:14;;;;;;;1.30;0.52;;;;;31.90;100510.00;;;;5091558;28;20039;-79
2021/11/24 15:20:44;;;;;;;0.65;0.65;;;;;32.30;100511.00;;;;5108604;28;20463;-82
2021/11/24 15:23:13;;;;;;;;;;;;;31.10;100515.00;;;;5108658;28;20039;-80
2021/11/24 15:26:04;;;;;;;0.00;0.00;;;;;31.80;100494.00;;;;5107828;28;20012;-80
2021/11/24 15:28:34;;;;;;;0.00;0.00;;;;;32.70;100502.00;;;;5108235;28;20040;-80